createdAt,value
2022-10-11T00:00:24.086Z,3.30
2022-10-11T00:01:24.115Z,3.10
2022-10-11T00:02:26.397Z,3.30
2022-10-11T00:03:25.029Z,3.10
2022-10-11T00:04:24.036Z,2.80
2022-10-11T00:05:23.989Z,3.20
2022-10-11T00:06:23.979Z,3.10
2022-10-11T00:07:23.955Z,3.00
2022-10-11T00:08:23.940Z,2.70
2022-10-11T00:09:23.949Z,3.10
2022-10-11T00:10:23.902Z,2.60
2022-10-11T00:11:23.883Z,3.00
2022-10-11T00:12:23.865Z,2.90
2022-10-11T00:13:23.853Z,3.00
2022-10-11T00:14:23.862Z,2.90
2022-10-11T00:15:23.824Z,2.90
2022-10-11T00:16:23.799Z,3.00
2022-10-11T00:17:23.777Z,3.10
2022-10-11T00:18:23.761Z,3.30
2022-10-11T00:19:23.773Z,3.00
2022-10-11T00:20:23.722Z,2.90
2022-10-11T00:21:23.703Z,3.30
2022-10-11T00:22:23.686Z,3.00
2022-10-11T00:23:23.668Z,2.80
2022-10-11T00:24:23.686Z,3.10
2022-10-11T00:25:23.633Z,2.90
2022-10-11T00:26:23.615Z,3.20
2022-10-11T00:27:23.597Z,3.30
2022-10-11T00:28:23.633Z,3.40
2022-10-11T00:29:23.572Z,3.20
2022-10-11T00:30:23.568Z,2.90
2022-10-11T00:31:23.529Z,3.00
2022-10-11T00:32:23.506Z,3.10
2022-10-11T00:33:23.489Z,3.30
2022-10-11T00:34:23.459Z,3.60
2022-10-11T00:35:24.480Z,3.20
2022-10-11T00:36:23.432Z,3.40
2022-10-11T00:37:23.408Z,3.30
2022-10-11T00:38:23.392Z,3.10
2022-10-11T00:39:23.377Z,3.10
2022-10-11T00:40:23.392Z,3.40
2022-10-11T00:41:23.334Z,3.90
2022-10-11T00:42:23.320Z,3.70
2022-10-11T00:43:23.305Z,3.90
2022-10-11T00:44:23.286Z,3.30
2022-10-11T00:45:23.288Z,3.70
2022-10-11T00:46:23.234Z,3.70
2022-10-11T00:47:24.223Z,3.60
2022-10-11T00:48:23.216Z,3.50
2022-10-11T00:49:23.189Z,3.40
2022-10-11T00:50:23.199Z,3.80
2022-10-11T00:51:23.150Z,3.80
2022-10-11T00:52:23.132Z,3.80
2022-10-11T00:53:23.113Z,3.90
2022-10-11T00:54:23.106Z,3.70
2022-10-11T00:55:23.092Z,4.00
2022-10-11T00:56:24.057Z,3.60
2022-10-11T00:57:23.040Z,4.10
2022-10-11T00:58:23.021Z,3.70
2022-10-11T00:59:22.999Z,4.40
2022-10-11T01:00:23.008Z,3.80
2022-10-11T01:01:23.018Z,4.10
2022-10-11T01:02:22.946Z,3.80
2022-10-11T01:03:22.924Z,3.70
2022-10-11T01:04:22.914Z,3.70
2022-10-11T01:05:29.719Z,3.70
2022-10-11T01:06:24.873Z,4.00
2022-10-11T01:07:22.854Z,4.00
2022-10-11T01:08:22.836Z,3.90
2022-10-11T01:09:22.814Z,3.80
2022-10-11T01:10:22.822Z,4.10
2022-10-11T01:11:22.774Z,3.50
2022-10-11T01:12:22.759Z,3.40
2022-10-11T01:13:22.740Z,3.50
2022-10-11T01:14:22.730Z,3.40
2022-10-11T01:15:22.736Z,3.50
2022-10-11T01:16:22.682Z,3.60
2022-10-11T01:17:22.669Z,3.80
2022-10-11T01:18:22.639Z,3.70
2022-10-11T01:19:23.629Z,3.60
2022-10-11T01:20:22.637Z,3.50
2022-10-11T01:21:22.591Z,3.60
2022-10-11T01:22:22.588Z,3.30
2022-10-11T01:23:22.553Z,3.70
2022-10-11T01:24:22.537Z,3.60
2022-10-11T01:25:22.545Z,3.70
2022-10-11T01:26:22.501Z,4.30
2022-10-11T01:27:22.483Z,4.10
2022-10-11T01:28:22.655Z,3.70
2022-10-11T01:29:22.472Z,3.90
2022-10-11T01:30:22.477Z,4.00
2022-10-11T01:31:22.408Z,4.10
2022-10-11T01:32:22.387Z,4.00
2022-10-11T01:33:22.371Z,4.00
2022-10-11T01:34:22.351Z,4.40
2022-10-11T01:35:22.371Z,4.70
2022-10-11T01:36:22.311Z,4.10
2022-10-11T01:37:22.292Z,5.00
2022-10-11T01:38:22.273Z,4.70
2022-10-11T01:39:22.262Z,5.10
2022-10-11T01:40:22.265Z,4.80
2022-10-11T01:41:22.224Z,4.80
2022-10-11T01:42:22.215Z,4.70
2022-10-11T01:43:22.186Z,4.90
2022-10-11T01:44:22.169Z,4.70
2022-10-11T01:45:22.172Z,4.90
2022-10-11T01:46:22.130Z,4.90
2022-10-11T01:47:22.110Z,5.10
2022-10-11T01:48:22.089Z,5.00
2022-10-11T01:49:22.066Z,5.40
2022-10-11T01:50:22.086Z,5.30
2022-10-11T01:51:22.033Z,5.10
2022-10-11T01:52:22.020Z,5.10
2022-10-11T01:53:21.998Z,5.10
2022-10-11T01:54:21.975Z,4.70
2022-10-11T01:55:21.988Z,5.10
2022-10-11T01:56:21.935Z,5.10
2022-10-11T01:57:21.926Z,4.90
2022-10-11T01:58:21.904Z,4.60
2022-10-11T01:59:21.882Z,4.60
2022-10-11T02:00:21.893Z,4.90
2022-10-11T02:01:21.888Z,4.40
2022-10-11T02:02:21.826Z,4.20
2022-10-11T02:03:21.808Z,3.90
2022-10-11T02:04:21.790Z,4.00
2022-10-11T02:05:21.802Z,3.70
2022-10-11T02:06:21.751Z,3.80
2022-10-11T02:07:21.734Z,4.00
2022-10-11T02:08:21.864Z,3.70
2022-10-11T02:09:21.701Z,3.30
2022-10-11T02:10:21.709Z,3.30
2022-10-11T02:11:21.661Z,3.50
2022-10-11T02:12:21.643Z,3.00
2022-10-11T02:13:21.628Z,3.40
2022-10-11T02:14:21.609Z,3.60
2022-10-11T02:15:21.611Z,3.70
2022-10-11T02:16:21.571Z,3.50
2022-10-11T02:17:21.556Z,3.50
2022-10-11T02:18:21.536Z,3.00
2022-10-11T02:19:21.514Z,3.30
2022-10-11T02:20:21.532Z,3.70
2022-10-11T02:21:21.482Z,3.40
2022-10-11T02:22:21.462Z,3.60
2022-10-11T02:23:21.444Z,3.40
2022-10-11T02:24:21.429Z,3.30
2022-10-11T02:25:21.436Z,3.30
2022-10-11T02:26:21.390Z,3.50
2022-10-11T02:27:21.371Z,3.60
2022-10-11T02:28:21.369Z,3.60
2022-10-11T02:29:21.342Z,3.10
2022-10-11T02:30:21.347Z,3.40
2022-10-11T02:31:21.305Z,3.50
2022-10-11T02:32:21.279Z,3.40
2022-10-11T02:33:21.273Z,3.30
2022-10-11T02:34:21.251Z,3.30
2022-10-11T02:35:21.254Z,3.40
2022-10-11T02:36:21.215Z,3.20
2022-10-11T02:37:21.200Z,3.20
2022-10-11T02:38:21.177Z,3.50
2022-10-11T02:39:21.162Z,3.70
2022-10-11T02:40:21.161Z,3.80
2022-10-11T02:41:21.124Z,3.40
2022-10-11T02:42:21.097Z,3.30
2022-10-11T02:43:21.088Z,3.50
2022-10-11T02:44:21.063Z,3.40
2022-10-11T02:45:21.071Z,3.70
2022-10-11T02:46:21.031Z,3.40
2022-10-11T02:47:21.007Z,3.30
2022-10-11T02:48:20.991Z,3.50
2022-10-11T02:49:20.978Z,3.70
2022-10-11T02:50:20.986Z,3.30
2022-10-11T02:51:20.937Z,3.50
2022-10-11T02:52:20.925Z,3.20
2022-10-11T02:53:20.899Z,3.00
2022-10-11T02:54:20.879Z,3.10
2022-10-11T02:55:20.888Z,3.20
2022-10-11T02:56:20.839Z,3.20
2022-10-11T02:57:20.831Z,3.20
2022-10-11T02:58:20.801Z,3.20
2022-10-11T02:59:20.786Z,3.50
2022-10-11T03:00:20.806Z,3.40
2022-10-11T03:01:20.792Z,3.30
2022-10-11T03:02:20.724Z,3.30
2022-10-11T03:03:20.715Z,3.60
2022-10-11T03:04:20.696Z,3.00
2022-10-11T03:05:20.706Z,3.20
2022-10-11T03:06:20.682Z,3.20
2022-10-11T03:07:20.642Z,3.10
2022-10-11T03:08:20.624Z,3.30
2022-10-11T03:09:20.613Z,2.80
2022-10-11T03:10:20.617Z,3.40
2022-10-11T03:11:20.583Z,3.50
2022-10-11T03:12:20.555Z,3.10
2022-10-11T03:13:20.537Z,3.10
2022-10-11T03:14:20.520Z,3.50
2022-10-11T03:15:20.531Z,3.30
2022-10-11T03:16:20.504Z,3.20
2022-10-11T03:17:35.668Z,3.60
2022-10-11T03:18:22.447Z,3.50
2022-10-11T03:19:20.415Z,3.40
2022-10-11T03:20:21.412Z,3.80
2022-10-11T03:21:20.409Z,3.60
2022-10-11T03:22:20.372Z,3.50
2022-10-11T03:23:20.344Z,3.50
2022-10-11T03:24:20.326Z,3.60
2022-10-11T03:25:20.313Z,3.40
2022-10-11T03:26:20.319Z,3.40
2022-10-11T03:27:20.279Z,3.40
2022-10-11T03:28:20.291Z,3.90
2022-10-11T03:29:20.239Z,3.30
2022-10-11T03:30:20.224Z,3.50
2022-10-11T03:31:20.234Z,3.50
2022-10-11T03:32:20.187Z,3.50
2022-10-11T03:33:20.168Z,3.40
2022-10-11T03:34:20.145Z,3.50
2022-10-11T03:35:20.134Z,3.00
2022-10-11T03:36:20.137Z,3.40
2022-10-11T03:37:20.091Z,3.40
2022-10-11T03:38:20.078Z,4.10
2022-10-11T03:39:20.059Z,3.50
2022-10-11T03:40:20.040Z,3.80
2022-10-11T03:41:20.050Z,4.10
2022-10-11T03:42:20.006Z,4.00
2022-10-11T03:43:19.988Z,4.40
2022-10-11T03:44:19.965Z,4.60
2022-10-11T03:45:19.943Z,4.30
2022-10-11T03:46:19.966Z,4.00
2022-10-11T03:47:19.909Z,4.10
2022-10-11T03:48:19.884Z,4.00
2022-10-11T03:49:19.869Z,4.20
2022-10-11T03:50:19.851Z,4.40
2022-10-11T03:51:19.860Z,4.00
2022-10-11T03:52:19.818Z,4.20
2022-10-11T03:53:19.791Z,4.10
2022-10-11T03:54:19.779Z,3.90
2022-10-11T03:55:19.759Z,3.60
2022-10-11T03:56:19.767Z,3.80
2022-10-11T03:57:19.716Z,4.20
2022-10-11T03:58:19.707Z,3.80
2022-10-11T03:59:19.683Z,4.20
2022-10-11T04:00:19.667Z,3.90
2022-10-11T04:01:19.729Z,4.00
2022-10-11T04:02:19.621Z,4.10
2022-10-11T04:03:19.617Z,4.10
2022-10-11T04:04:19.597Z,3.90
2022-10-11T04:05:19.572Z,4.30
2022-10-11T04:06:19.584Z,4.40
2022-10-11T04:07:19.548Z,4.00
2022-10-11T04:08:19.518Z,4.00
2022-10-11T04:09:19.496Z,4.70
2022-10-11T04:10:19.480Z,4.40
2022-10-11T04:11:19.486Z,4.30
2022-10-11T04:12:19.473Z,4.40
2022-10-11T04:13:19.437Z,4.30
2022-10-11T04:14:19.403Z,4.20
2022-10-11T04:15:19.384Z,4.20
2022-10-11T04:16:19.396Z,4.50
2022-10-11T04:17:19.348Z,4.60
2022-10-11T04:18:19.330Z,4.40
2022-10-11T04:19:19.312Z,4.50
2022-10-11T04:20:19.295Z,4.40
2022-10-11T04:21:19.306Z,4.60
2022-10-11T04:22:19.255Z,4.50
2022-10-11T04:23:19.260Z,4.60
2022-10-11T04:24:19.220Z,4.80
2022-10-11T04:25:20.119Z,4.80
2022-10-11T04:26:19.218Z,5.20
2022-10-11T04:27:19.168Z,4.80
2022-10-11T04:28:19.190Z,4.90
2022-10-11T04:29:19.136Z,5.00
2022-10-11T04:30:19.131Z,4.60
2022-10-11T04:31:19.144Z,5.30
2022-10-11T04:32:19.085Z,4.80
2022-10-11T04:33:19.061Z,4.90
2022-10-11T04:34:19.044Z,5.10
2022-10-11T04:35:19.026Z,5.10
2022-10-11T04:36:19.035Z,5.20
2022-10-11T04:37:18.983Z,4.70
2022-10-11T04:38:18.971Z,4.90
2022-10-11T04:39:18.949Z,5.00
2022-10-11T04:40:18.937Z,5.00
2022-10-11T04:41:18.949Z,4.80
2022-10-11T04:42:18.892Z,5.10
2022-10-11T04:43:18.877Z,5.00
2022-10-11T04:44:18.860Z,5.60
2022-10-11T04:45:18.838Z,5.60
2022-10-11T04:46:18.849Z,5.90
2022-10-11T04:47:18.806Z,6.10
2022-10-11T04:48:18.778Z,8.30
2022-10-11T04:49:18.762Z,7.20
2022-10-11T04:50:18.743Z,7.70
2022-10-11T04:51:18.752Z,7.40
2022-10-11T04:52:22.121Z,7.90
2022-10-11T04:53:20.687Z,7.10
2022-10-11T04:54:18.685Z,7.40
2022-10-11T04:55:18.649Z,8.70
2022-10-11T04:56:18.665Z,8.30
2022-10-11T04:57:18.612Z,8.80
2022-10-11T04:58:18.598Z,9.50
2022-10-11T04:59:18.577Z,10.00
2022-10-11T05:00:18.553Z,10.30
2022-10-11T05:01:18.562Z,9.70
2022-10-11T05:02:18.566Z,10.00
2022-10-11T05:03:18.517Z,10.20
2022-10-11T05:04:18.494Z,9.50
2022-10-11T05:05:18.464Z,9.70
2022-10-11T05:06:18.483Z,9.30
2022-10-11T05:07:18.424Z,9.30
2022-10-11T05:08:18.405Z,9.30
2022-10-11T05:09:18.384Z,8.90
2022-10-11T05:10:18.382Z,8.90
2022-10-11T05:11:18.375Z,8.20
2022-10-11T05:12:18.327Z,8.30
2022-10-11T05:13:18.309Z,8.00
2022-10-11T05:14:18.290Z,7.70
2022-10-11T05:15:18.271Z,8.00
2022-10-11T05:16:18.554Z,8.50
2022-10-11T05:17:18.238Z,8.40
2022-10-11T05:18:18.215Z,8.00
2022-10-11T05:19:18.206Z,7.90
2022-10-11T05:20:18.182Z,8.10
2022-10-11T05:21:18.608Z,8.10
2022-10-11T05:22:18.144Z,8.90
2022-10-11T05:23:18.124Z,8.90
2022-10-11T05:24:18.107Z,9.60
2022-10-11T05:25:18.087Z,8.90
2022-10-11T05:26:18.095Z,8.70
2022-10-11T05:27:18.054Z,9.20
2022-10-11T05:28:18.054Z,9.20
2022-10-11T05:29:18.058Z,8.90
2022-10-11T05:30:17.997Z,8.90
2022-10-11T05:31:18.007Z,9.30
2022-10-11T05:32:18.603Z,9.10
2022-10-11T05:33:17.942Z,9.50
2022-10-11T05:34:17.929Z,9.20
2022-10-11T05:35:17.905Z,9.20
2022-10-11T05:36:17.929Z,9.10
2022-10-11T05:37:17.872Z,9.60
2022-10-11T05:38:17.854Z,9.50
2022-10-11T05:39:17.834Z,10.40
2022-10-11T05:40:17.819Z,9.70
2022-10-11T05:41:17.823Z,9.50
2022-10-11T05:42:17.783Z,9.60
2022-10-11T05:43:17.766Z,9.70
2022-10-11T05:44:17.740Z,10.30
2022-10-11T05:45:17.722Z,9.70
2022-10-11T05:46:17.730Z,9.80
2022-10-11T05:47:17.687Z,10.10
2022-10-11T05:48:17.668Z,9.50
2022-10-11T05:49:17.654Z,9.90
2022-10-11T05:50:21.976Z,9.90
2022-10-11T05:51:19.649Z,9.10
2022-10-11T05:52:17.594Z,8.30
2022-10-11T05:53:17.581Z,9.30
2022-10-11T05:54:18.091Z,9.10
2022-10-11T05:55:17.549Z,9.90
2022-10-11T05:56:17.557Z,9.80
2022-10-11T05:57:17.508Z,8.80
2022-10-11T05:58:17.491Z,9.80
2022-10-11T05:59:17.474Z,9.30
2022-10-11T06:00:17.457Z,9.40
2022-10-11T06:01:17.600Z,10.60
2022-10-11T06:02:17.425Z,11.20
2022-10-11T06:03:17.402Z,10.80
2022-10-11T06:04:17.383Z,10.90
2022-10-11T06:05:17.374Z,10.60
2022-10-11T06:06:17.378Z,10.30
2022-10-11T06:07:17.333Z,11.40
2022-10-11T06:08:17.314Z,12.30
2022-10-11T06:09:17.298Z,13.10
2022-10-11T06:10:17.279Z,12.90
2022-10-11T06:11:17.286Z,13.20
2022-10-11T06:12:17.242Z,11.90
2022-10-11T06:13:17.225Z,11.30
2022-10-11T06:14:17.205Z,10.10
2022-10-11T06:15:17.187Z,10.10
2022-10-11T06:16:17.197Z,10.10
2022-10-11T06:17:17.153Z,9.70
2022-10-11T06:18:17.132Z,10.20
2022-10-11T06:19:18.078Z,9.60
2022-10-11T06:20:18.093Z,9.40
2022-10-11T06:21:18.102Z,9.90
2022-10-11T06:22:17.068Z,9.20
2022-10-11T06:23:17.043Z,8.90
2022-10-11T06:24:17.019Z,9.70
2022-10-11T06:25:16.994Z,9.90
2022-10-11T06:26:18.592Z,9.40
2022-10-11T06:27:16.966Z,10.10
2022-10-11T06:28:17.019Z,9.80
2022-10-11T06:29:16.934Z,9.80
2022-10-11T06:30:16.912Z,9.80
2022-10-11T06:31:16.921Z,9.80
2022-10-11T06:32:16.874Z,9.90
2022-10-11T06:33:16.854Z,10.40
2022-10-11T06:34:16.841Z,10.40
2022-10-11T06:35:16.835Z,10.20
2022-10-11T06:36:16.841Z,10.90
2022-10-11T06:37:16.788Z,11.20
2022-10-11T06:38:16.767Z,10.70
2022-10-11T06:39:16.753Z,10.20
2022-10-11T06:40:16.737Z,10.20
2022-10-11T06:41:16.745Z,9.90
2022-10-11T06:42:16.697Z,9.90
2022-10-11T06:43:16.683Z,9.40
2022-10-11T06:44:16.671Z,9.50
2022-10-11T06:45:16.653Z,9.50
2022-10-11T06:46:16.659Z,8.90
2022-10-11T06:47:16.613Z,9.60
2022-10-11T06:48:16.592Z,9.40
2022-10-11T06:49:22.180Z,9.30
2022-10-11T06:50:34.906Z,8.90
2022-10-11T06:51:17.570Z,8.90
2022-10-11T06:52:16.530Z,8.80
2022-10-11T06:53:16.506Z,9.10
2022-10-11T06:54:16.513Z,9.20
2022-10-11T06:55:16.468Z,9.30
2022-10-11T06:56:16.480Z,9.30
2022-10-11T06:57:16.436Z,8.90
2022-10-11T06:58:16.416Z,9.10
2022-10-11T06:59:16.401Z,8.50
2022-10-11T07:00:17.079Z,8.10
2022-10-11T07:01:16.415Z,8.70
2022-10-11T07:02:16.349Z,8.50
2022-10-11T07:03:16.326Z,8.90
2022-10-11T07:04:16.310Z,8.70
2022-10-11T07:05:16.293Z,8.50
2022-10-11T07:06:16.305Z,8.30
2022-10-11T07:07:16.262Z,8.30
2022-10-11T07:08:16.242Z,8.80
2022-10-11T07:09:16.225Z,8.90
2022-10-11T07:10:16.202Z,8.30
2022-10-11T07:11:16.220Z,8.40
2022-10-11T07:12:16.169Z,8.80
2022-10-11T07:13:17.321Z,8.30
2022-10-11T07:14:17.134Z,8.70
2022-10-11T07:15:16.114Z,9.20
2022-10-11T07:16:16.122Z,8.60
2022-10-11T07:17:16.105Z,8.90
2022-10-11T07:18:16.084Z,8.30
2022-10-11T07:19:16.043Z,8.20
2022-10-11T07:20:16.027Z,8.40
2022-10-11T07:21:16.034Z,7.70
2022-10-11T07:22:15.987Z,7.50
2022-10-11T07:23:15.977Z,7.30
2022-10-11T07:24:15.951Z,7.30
2022-10-11T07:25:15.940Z,7.60
2022-10-11T07:26:15.946Z,7.80
2022-10-11T07:27:15.901Z,6.90
2022-10-11T07:28:15.919Z,7.10
2022-10-11T07:29:15.871Z,7.70
2022-10-11T07:30:15.847Z,7.10
2022-10-11T07:31:15.861Z,7.60
2022-10-11T07:32:15.812Z,7.60
2022-10-11T07:33:16.462Z,7.50
2022-10-11T07:34:15.780Z,7.20
2022-10-11T07:35:15.753Z,7.40
2022-10-11T07:36:15.771Z,6.60
2022-10-11T07:37:15.747Z,7.00
2022-10-11T07:38:15.706Z,7.50
2022-10-11T07:39:15.690Z,7.40
2022-10-11T07:40:15.673Z,7.50
2022-10-11T07:41:15.687Z,7.30
2022-10-11T07:42:15.643Z,8.20
2022-10-11T07:43:15.631Z,6.90
2022-10-11T07:44:16.457Z,7.20
2022-10-11T07:45:15.594Z,7.50
2022-10-11T07:46:15.596Z,7.20
2022-10-11T07:47:15.555Z,7.90
2022-10-11T07:48:15.533Z,7.60
2022-10-11T07:49:15.515Z,6.70
2022-10-11T07:50:15.500Z,7.40
2022-10-11T07:51:15.518Z,7.40
2022-10-11T07:52:15.464Z,7.30
2022-10-11T07:53:15.454Z,6.70
2022-10-11T07:54:15.426Z,6.10
2022-10-11T07:55:15.409Z,6.10
2022-10-11T07:56:15.447Z,6.80
2022-10-11T07:57:15.389Z,7.10
2022-10-11T07:58:15.352Z,6.60
2022-10-11T07:59:15.337Z,6.90
2022-10-11T08:00:15.322Z,6.50
2022-10-11T08:01:15.355Z,6.30
2022-10-11T08:02:15.279Z,6.80
2022-10-11T08:03:15.264Z,6.80
2022-10-11T08:04:15.289Z,6.80
2022-10-11T08:05:15.234Z,6.50
2022-10-11T08:06:15.238Z,7.10
2022-10-11T08:07:15.195Z,7.10
2022-10-11T08:08:15.175Z,6.90
2022-10-11T08:09:15.169Z,8.00
2022-10-11T08:10:15.136Z,11.60
2022-10-11T08:11:15.149Z,8.00
2022-10-11T08:12:15.097Z,7.10
2022-10-11T08:13:15.103Z,6.70
2022-10-11T08:14:15.063Z,7.10
2022-10-11T08:15:15.057Z,9.40
2022-10-11T08:16:15.032Z,7.70
2022-10-11T08:17:15.063Z,7.10
2022-10-11T08:18:14.997Z,8.00
2022-10-11T08:19:14.971Z,7.40
2022-10-11T08:20:15.965Z,7.40
2022-10-11T08:21:14.947Z,7.70
2022-10-11T08:22:14.952Z,7.20
2022-10-11T08:23:14.906Z,7.70
2022-10-11T08:24:14.887Z,7.90
2022-10-11T08:25:14.873Z,7.30
2022-10-11T08:26:14.855Z,7.60
2022-10-11T08:27:14.870Z,7.50
2022-10-11T08:28:14.863Z,7.10
2022-10-11T08:29:14.842Z,7.40
2022-10-11T08:30:15.562Z,7.50
2022-10-11T08:31:14.794Z,7.70
2022-10-11T08:32:14.786Z,7.30
2022-10-11T08:33:14.741Z,5.50
2022-10-11T08:34:14.716Z,6.80
2022-10-11T08:35:14.695Z,6.80
2022-10-11T08:36:14.680Z,6.90
2022-10-11T08:37:14.704Z,7.60
2022-10-11T08:38:14.643Z,7.20
2022-10-11T08:39:14.629Z,7.60
2022-10-11T08:40:14.604Z,7.40
2022-10-11T08:41:14.611Z,8.20
2022-10-11T08:42:14.604Z,7.90
2022-10-11T08:43:15.445Z,8.30
2022-10-11T08:44:14.539Z,7.80
2022-10-11T08:45:14.553Z,7.70
2022-10-11T08:46:14.504Z,8.20
2022-10-11T08:47:14.517Z,7.70
2022-10-11T08:48:14.472Z,8.00
2022-10-11T08:49:14.462Z,7.20
2022-10-11T08:50:14.438Z,7.40
2022-10-11T08:51:14.415Z,7.70
2022-10-11T08:52:14.423Z,7.80
2022-10-11T08:53:14.378Z,7.30
2022-10-11T08:54:14.357Z,7.80
2022-10-11T08:55:14.341Z,7.30
2022-10-11T08:56:14.324Z,8.00
2022-10-11T08:57:14.352Z,8.10
2022-10-11T08:58:14.287Z,8.30
2022-10-11T08:59:14.277Z,7.90
2022-10-11T09:00:14.271Z,8.70
2022-10-11T09:01:14.283Z,8.70
2022-10-11T09:02:15.256Z,8.80
2022-10-11T09:03:14.210Z,8.20
2022-10-11T09:04:14.178Z,8.50
2022-10-11T09:05:14.155Z,8.80
2022-10-11T09:06:14.143Z,8.10
2022-10-11T09:07:14.142Z,8.40
2022-10-11T09:08:14.100Z,8.50
2022-10-11T09:09:14.078Z,8.30
2022-10-11T09:10:14.061Z,9.00
2022-10-11T09:11:14.043Z,9.10
2022-10-11T09:12:14.932Z,8.40
2022-10-11T09:13:14.028Z,8.50
2022-10-11T09:14:13.983Z,8.20
2022-10-11T09:15:13.966Z,8.50
2022-10-11T09:16:13.950Z,7.50
2022-10-11T09:17:13.952Z,7.90
2022-10-11T09:18:14.911Z,8.20
2022-10-11T09:19:13.894Z,8.50
2022-10-11T09:20:13.874Z,9.50
2022-10-11T09:21:13.856Z,9.10
2022-10-11T09:22:13.860Z,9.10
2022-10-11T09:23:13.828Z,8.60
2022-10-11T09:24:13.802Z,8.70
2022-10-11T09:25:13.773Z,9.80
2022-10-11T09:26:13.760Z,9.90
2022-10-11T09:27:13.768Z,9.10
2022-10-11T09:28:13.744Z,8.50
2022-10-11T09:29:13.696Z,7.90
2022-10-11T09:30:13.676Z,7.60
2022-10-11T09:31:13.659Z,7.20
2022-10-11T09:32:13.664Z,7.40
2022-10-11T09:33:13.615Z,7.70
2022-10-11T09:34:13.599Z,7.10
2022-10-11T09:35:13.578Z,7.00
2022-10-11T09:36:13.565Z,7.20
2022-10-11T09:37:13.565Z,7.70
2022-10-11T09:38:13.520Z,7.50
2022-10-11T09:39:13.501Z,7.40
2022-10-11T09:40:13.480Z,7.40
2022-10-11T09:41:13.459Z,7.90
2022-10-11T09:42:13.458Z,7.40
2022-10-11T09:43:14.415Z,7.20
2022-10-11T09:44:13.395Z,7.50
2022-10-11T09:45:14.116Z,7.30
2022-10-11T09:46:13.374Z,7.00
2022-10-11T09:47:13.931Z,6.80
2022-10-11T09:48:13.307Z,6.60
2022-10-11T09:49:13.300Z,6.90
2022-10-11T09:50:13.262Z,7.20
2022-10-11T09:51:13.267Z,7.90
2022-10-11T09:52:13.226Z,9.10
2022-10-11T09:53:13.206Z,8.40
2022-10-11T09:54:13.167Z,9.40
2022-10-11T09:55:16.422Z,6.70
2022-10-11T09:56:15.160Z,6.80
2022-10-11T09:57:13.101Z,7.00
2022-10-11T09:58:13.085Z,6.50
2022-10-11T09:59:13.095Z,6.70
2022-10-11T10:00:13.265Z,6.20
2022-10-11T10:01:13.079Z,6.30
2022-10-11T10:02:13.682Z,6.20
2022-10-11T10:03:12.994Z,6.10
2022-10-11T10:04:12.994Z,6.00
2022-10-11T10:05:13.432Z,6.30
2022-10-11T10:06:12.903Z,6.10
2022-10-11T10:07:12.911Z,5.80
2022-10-11T10:08:12.907Z,6.30
2022-10-11T10:09:12.857Z,6.20
2022-10-11T10:10:12.831Z,6.30
2022-10-11T10:11:12.821Z,6.00
2022-10-11T10:12:12.770Z,6.40
2022-10-11T10:13:12.756Z,6.80
2022-10-11T10:14:12.722Z,6.30
2022-10-11T10:15:12.741Z,6.30
2022-10-11T10:16:12.728Z,6.00
2022-10-11T10:17:12.673Z,6.10
2022-10-11T10:18:12.634Z,6.00
2022-10-11T10:19:12.612Z,6.00
2022-10-11T10:20:12.597Z,5.90
2022-10-11T10:21:12.597Z,6.00
2022-10-11T10:22:12.563Z,5.80
2022-10-11T10:23:12.541Z,6.70
2022-10-11T10:24:12.504Z,5.70
2022-10-11T10:25:13.423Z,5.30
2022-10-11T10:26:12.443Z,4.80
2022-10-11T10:27:14.429Z,4.50
2022-10-11T10:28:12.463Z,4.20
2022-10-11T10:29:12.402Z,3.90
2022-10-11T10:30:12.377Z,3.30
2022-10-11T10:31:12.931Z,3.60
2022-10-11T10:32:14.875Z,3.90
2022-10-11T10:33:13.290Z,3.70
2022-10-11T10:34:12.275Z,3.90
2022-10-11T10:35:12.251Z,3.70
2022-10-11T10:36:12.225Z,3.70
2022-10-11T10:37:12.229Z,4.40
2022-10-11T10:38:12.186Z,5.40
2022-10-11T10:39:12.150Z,5.20
2022-10-11T10:40:12.147Z,4.80
2022-10-11T10:41:12.117Z,4.80
2022-10-11T10:42:12.115Z,5.20
2022-10-11T10:43:12.068Z,5.00
2022-10-11T10:44:12.037Z,4.80
2022-10-11T10:45:13.694Z,4.70
2022-10-11T10:46:13.005Z,4.90
2022-10-11T10:47:12.011Z,4.80
2022-10-11T10:48:11.956Z,4.30
2022-10-11T10:49:48.508Z,4.50
2022-10-11T10:50:13.927Z,4.70
2022-10-11T10:51:11.902Z,5.30
2022-10-11T10:52:11.893Z,4.40
2022-10-11T10:53:11.842Z,4.30
2022-10-11T10:54:11.828Z,4.40
2022-10-11T10:55:11.818Z,4.20
2022-10-11T10:56:11.792Z,4.80
2022-10-11T10:57:11.798Z,4.40
2022-10-11T10:58:15.155Z,4.60
2022-10-11T10:59:13.735Z,3.60
2022-10-11T11:00:11.697Z,3.50
2022-10-11T11:01:11.674Z,4.10
2022-10-11T11:02:38.509Z,4.70
2022-10-11T11:03:13.634Z,4.30
2022-10-11T11:04:11.609Z,4.50
2022-10-11T11:05:11.583Z,4.40
2022-10-11T11:06:11.554Z,4.50
2022-10-11T11:07:11.590Z,4.20
2022-10-11T11:08:11.522Z,4.80
2022-10-11T11:09:11.495Z,4.20
2022-10-11T11:10:11.475Z,4.60
2022-10-11T11:11:11.442Z,4.40
2022-10-11T11:12:11.448Z,4.10
2022-10-11T11:13:11.400Z,4.00
2022-10-11T11:14:11.377Z,3.90
2022-10-11T11:15:11.357Z,3.90
2022-10-11T11:16:11.344Z,3.80
2022-10-11T11:17:11.335Z,3.60
2022-10-11T11:18:11.283Z,3.70
2022-10-11T11:19:11.268Z,3.70
2022-10-11T11:20:11.239Z,3.40
2022-10-11T11:21:11.213Z,3.00
2022-10-11T11:22:11.225Z,3.40
2022-10-11T11:23:11.167Z,3.00
2022-10-11T11:24:11.149Z,2.80
2022-10-11T11:25:11.121Z,2.80
2022-10-11T11:26:11.098Z,3.00
2022-10-11T11:27:11.110Z,3.00
2022-10-11T11:28:11.125Z,2.80
2022-10-11T11:29:11.049Z,2.70
2022-10-11T11:30:11.012Z,2.50
2022-10-11T11:31:10.988Z,2.60
2022-10-11T11:32:11.012Z,2.80
2022-10-11T11:33:10.941Z,2.90
2022-10-11T11:34:10.913Z,2.70
2022-10-11T11:35:10.903Z,2.50
2022-10-11T11:36:10.866Z,2.60
2022-10-11T11:37:11.524Z,2.80
2022-10-11T11:38:10.823Z,3.00
2022-10-11T11:39:10.798Z,3.30
2022-10-11T11:40:10.774Z,3.30
2022-10-11T11:41:10.753Z,2.90
2022-10-11T11:42:10.757Z,2.80
2022-10-11T11:43:10.711Z,2.90
2022-10-11T11:44:10.681Z,3.00
2022-10-11T11:45:10.666Z,2.90
2022-10-11T11:46:10.638Z,2.80
2022-10-11T11:47:10.645Z,2.70
2022-10-11T11:48:10.591Z,2.70
2022-10-11T11:49:13.050Z,3.10
2022-10-11T11:50:11.543Z,2.80
2022-10-11T11:51:10.520Z,2.80
2022-10-11T11:52:10.528Z,2.70
2022-10-11T11:53:10.477Z,3.10
2022-10-11T11:54:10.459Z,2.70
2022-10-11T11:55:10.435Z,3.00
2022-10-11T11:56:10.411Z,2.80
2022-10-11T11:57:10.408Z,2.70
2022-10-11T11:58:10.369Z,2.80
2022-10-11T11:59:10.343Z,2.70
2022-10-11T12:00:10.319Z,2.80
2022-10-11T12:01:10.294Z,2.80
2022-10-11T12:02:10.314Z,2.50
2022-10-11T12:03:10.243Z,2.80
2022-10-11T12:04:11.229Z,2.60
2022-10-11T12:05:11.023Z,2.50
2022-10-11T12:06:10.185Z,2.60
2022-10-11T12:07:17.890Z,3.00
2022-10-11T12:08:12.142Z,2.40
2022-10-11T12:09:10.120Z,2.70
2022-10-11T12:10:10.097Z,2.60
2022-10-11T12:11:10.082Z,2.30
2022-10-11T12:12:10.078Z,2.40
2022-10-11T12:13:10.029Z,2.60
2022-10-11T12:14:10.010Z,2.30
2022-10-11T12:15:09.982Z,2.30
2022-10-11T12:16:09.959Z,2.40
2022-10-11T12:17:09.961Z,2.30
2022-10-11T12:18:09.910Z,2.50
2022-10-11T12:19:09.893Z,2.30
2022-10-11T12:20:09.872Z,2.20
2022-10-11T12:21:09.935Z,2.40
2022-10-11T12:22:09.852Z,2.50
2022-10-11T12:23:09.803Z,2.40
2022-10-11T12:24:09.775Z,2.00
2022-10-11T12:25:09.758Z,2.40
2022-10-11T12:26:09.736Z,2.40
2022-10-11T12:27:09.740Z,2.50
2022-10-11T12:28:09.743Z,2.00
2022-10-11T12:29:09.665Z,2.20
2022-10-11T12:30:09.670Z,2.20
2022-10-11T12:31:09.625Z,2.40
2022-10-11T12:32:09.638Z,2.20
2022-10-11T12:33:09.601Z,2.20
2022-10-11T12:34:09.567Z,2.20
2022-10-11T12:35:09.543Z,2.20
2022-10-11T12:36:09.859Z,2.10
2022-10-11T12:37:09.543Z,2.00
2022-10-11T12:38:09.473Z,2.00
2022-10-11T12:39:09.452Z,2.20
2022-10-11T12:40:09.424Z,2.20
2022-10-11T12:41:10.453Z,2.00
2022-10-11T12:42:09.417Z,1.90
2022-10-11T12:43:09.366Z,2.10
2022-10-11T12:44:09.342Z,2.10
2022-10-11T12:45:09.323Z,2.20
2022-10-11T12:46:09.298Z,1.70
2022-10-11T12:47:09.314Z,2.20
2022-10-11T12:48:09.285Z,2.00
2022-10-11T12:49:09.235Z,2.30
2022-10-11T12:50:09.219Z,2.20
2022-10-11T12:51:09.263Z,2.20
2022-10-11T12:52:09.195Z,2.00
2022-10-11T12:53:09.198Z,2.00
2022-10-11T12:54:26.300Z,2.00
2022-10-11T12:55:11.114Z,2.00
2022-10-11T12:56:09.584Z,2.10
2022-10-11T12:57:12.135Z,1.90
2022-10-11T12:58:10.076Z,2.00
2022-10-11T12:59:09.013Z,1.80
2022-10-11T13:00:09.050Z,1.90
2022-10-11T13:01:09.022Z,1.90
2022-10-11T13:02:08.991Z,2.10
2022-10-11T13:03:08.937Z,1.90
2022-10-11T13:04:08.982Z,1.80
2022-10-11T13:05:08.886Z,1.60
2022-10-11T13:06:09.129Z,1.70
2022-10-11T13:07:08.892Z,1.80
2022-10-11T13:08:08.812Z,1.90
2022-10-11T13:09:08.819Z,2.00
2022-10-11T13:10:08.908Z,1.90
2022-10-11T13:11:08.751Z,2.00
2022-10-11T13:12:08.753Z,1.60
2022-10-11T13:13:08.711Z,2.00
2022-10-11T13:14:08.684Z,2.00
2022-10-11T13:15:08.666Z,1.80
2022-10-11T13:16:08.868Z,2.20
2022-10-11T13:17:08.654Z,1.90